createdAt,value
2022-12-31T00:02:01.744Z,90.10
2022-12-31T00:04:34.199Z,84.00
2022-12-31T00:07:06.871Z,92.90
2022-12-31T00:09:39.424Z,118.50
2022-12-31T00:12:11.935Z,120.90
2022-12-31T00:14:44.689Z,123.00
2022-12-31T00:17:17.418Z,127.90
2022-12-31T00:19:50.164Z,138.60
2022-12-31T00:22:22.621Z,128.90
2022-12-31T00:24:55.086Z,129.70
2022-12-31T00:27:27.748Z,114.70
2022-12-31T00:30:04.516Z,115.80
2022-12-31T00:32:39.803Z,110.00
2022-12-31T00:35:12.491Z,99.60
2022-12-31T00:37:45.117Z,124.10
2022-12-31T00:40:17.815Z,121.20
2022-12-31T00:42:50.388Z,122.00
2022-12-31T00:45:22.972Z,126.30
2022-12-31T00:47:55.452Z,127.10
2022-12-31T00:50:28.137Z,125.30
2022-12-31T00:53:01.195Z,127.70
2022-12-31T00:55:34.105Z,129.60
2022-12-31T00:58:06.988Z,128.10
2022-12-31T01:00:41.016Z,129.00
2022-12-31T01:03:13.804Z,123.20
2022-12-31T01:05:46.693Z,114.60
2022-12-31T01:08:20.027Z,106.00
2022-12-31T01:11:11.559Z,100.40
2022-12-31T01:13:44.979Z,94.70
2022-12-31T01:16:18.391Z,85.90
2022-12-31T01:18:51.371Z,90.40
2022-12-31T01:21:24.738Z,85.10
2022-12-31T01:23:57.631Z,99.00
2022-12-31T01:26:30.570Z,89.90
2022-12-31T01:29:03.161Z,92.10
2022-12-31T01:31:37.066Z,91.10
2022-12-31T01:34:10.425Z,86.50
2022-12-31T01:36:43.296Z,88.70
2022-12-31T01:39:16.440Z,85.70
2022-12-31T01:41:49.745Z,85.80
2022-12-31T01:44:31.351Z,80.30
2022-12-31T01:47:06.115Z,75.60
2022-12-31T01:49:52.737Z,71.10
2022-12-31T01:52:30.290Z,73.80
2022-12-31T01:55:18.109Z,71.20
2022-12-31T01:57:56.515Z,67.10
2022-12-31T02:00:29.270Z,62.70
2022-12-31T02:03:02.585Z,64.30
2022-12-31T02:05:52.470Z,62.80
2022-12-31T02:08:25.794Z,73.40
2022-12-31T02:10:58.951Z,67.60
2022-12-31T02:13:32.092Z,70.30
2022-12-31T02:16:19.486Z,76.80
2022-12-31T02:19:20.003Z,81.10
2022-12-31T02:22:19.555Z,79.70
2022-12-31T02:25:26.367Z,72.50
2022-12-31T02:28:14.881Z,79.20
2022-12-31T02:30:52.204Z,76.70
2022-12-31T02:33:41.095Z,77.90
2022-12-31T02:36:26.095Z,63.40
2022-12-31T02:39:00.522Z,61.70
2022-12-31T02:41:51.986Z,60.70
2022-12-31T02:44:30.659Z,58.20
2022-12-31T02:47:12.359Z,57.90
2022-12-31T02:49:56.248Z,61.10
2022-12-31T02:52:31.117Z,60.60
2022-12-31T02:55:09.614Z,61.50
2022-12-31T02:58:13.329Z,60.80
2022-12-31T03:01:14.721Z,66.40
2022-12-31T03:03:47.838Z,71.20
2022-12-31T03:06:20.530Z,73.90
2022-12-31T03:09:14.984Z,74.60
2022-12-31T03:12:07.107Z,72.10
2022-12-31T03:14:39.896Z,70.00
2022-12-31T03:17:12.820Z,67.40
2022-12-31T03:20:03.669Z,66.10
2022-12-31T03:22:38.826Z,71.40
2022-12-31T03:25:33.797Z,70.10
2022-12-31T03:28:15.560Z,60.60
2022-12-31T03:30:51.981Z,62.80
2022-12-31T03:33:25.244Z,68.10
2022-12-31T03:35:58.190Z,57.50
2022-12-31T03:38:30.877Z,57.80
2022-12-31T03:41:04.369Z,61.40
2022-12-31T03:43:37.121Z,60.20
2022-12-31T03:46:10.231Z,59.60
2022-12-31T03:48:43.319Z,63.70
2022-12-31T03:51:17.195Z,61.60
2022-12-31T03:53:50.401Z,63.70
2022-12-31T03:56:23.190Z,66.10
2022-12-31T03:58:55.900Z,66.20
2022-12-31T04:01:28.949Z,71.40
2022-12-31T04:04:02.461Z,64.80
2022-12-31T04:06:35.111Z,64.90
2022-12-31T04:09:07.974Z,59.70
2022-12-31T04:11:40.761Z,62.60
2022-12-31T04:14:13.870Z,56.20
2022-12-31T04:16:47.311Z,55.60
2022-12-31T04:19:20.234Z,59.00
2022-12-31T04:21:52.987Z,51.10
2022-12-31T04:24:26.083Z,52.40
2022-12-31T04:27:05.347Z,57.20
2022-12-31T04:29:41.883Z,55.90
2022-12-31T04:32:15.050Z,55.60
2022-12-31T04:34:48.221Z,55.10
2022-12-31T04:37:20.819Z,64.80
2022-12-31T04:39:53.578Z,59.50
2022-12-31T04:42:26.188Z,60.70
2022-12-31T04:44:59.240Z,52.80
2022-12-31T04:47:32.385Z,55.20
2022-12-31T04:50:05.533Z,60.40
2022-12-31T04:52:42.648Z,59.30
2022-12-31T04:55:17.791Z,62.10
2022-12-31T04:57:51.297Z,61.40
2022-12-31T05:00:24.987Z,62.60
2022-12-31T05:02:58.130Z,62.90
2022-12-31T05:05:31.373Z,60.60
2022-12-31T05:08:04.329Z,59.50
2022-12-31T05:10:37.437Z,60.70
2022-12-31T05:13:10.547Z,57.10
2022-12-31T05:15:43.960Z,61.50
2022-12-31T05:18:17.272Z,58.30
2022-12-31T05:20:50.654Z,54.80
2022-12-31T05:23:23.819Z,53.10
2022-12-31T05:25:56.671Z,51.50
2022-12-31T05:28:29.631Z,49.40
2022-12-31T05:31:03.016Z,49.30
2022-12-31T05:33:35.965Z,50.40
2022-12-31T05:36:09.432Z,44.50
2022-12-31T05:38:42.500Z,55.10
2022-12-31T05:41:15.386Z,51.90
2022-12-31T05:43:48.309Z,57.10
2022-12-31T05:46:21.469Z,54.00
2022-12-31T05:48:54.342Z,58.60
2022-12-31T05:51:27.310Z,73.80
2022-12-31T05:54:00.447Z,103.10
2022-12-31T05:56:33.425Z,104.00
2022-12-31T05:59:06.520Z,101.50
2022-12-31T06:01:39.874Z,98.60
2022-12-31T06:04:13.249Z,87.20
2022-12-31T06:06:46.596Z,82.60
2022-12-31T06:09:20.602Z,77.90
2022-12-31T06:11:53.898Z,81.20
2022-12-31T06:14:27.146Z,85.50
2022-12-31T06:17:00.468Z,93.10
2022-12-31T06:19:33.801Z,89.90
2022-12-31T06:22:07.451Z,93.50
2022-12-31T06:24:40.092Z,102.10
2022-12-31T06:27:12.879Z,107.90
2022-12-31T06:29:46.094Z,92.70
2022-12-31T06:32:19.153Z,109.30
2022-12-31T06:34:51.748Z,93.40
2022-12-31T06:37:24.635Z,82.30
2022-12-31T06:39:57.263Z,74.70
2022-12-31T06:42:33.656Z,84.10
2022-12-31T06:45:06.336Z,77.00
2022-12-31T06:47:39.227Z,73.60
2022-12-31T06:50:12.184Z,75.90
2022-12-31T06:52:46.322Z,75.90
2022-12-31T06:55:20.268Z,62.90
2022-12-31T06:57:53.725Z,53.50
2022-12-31T07:00:27.176Z,65.50
2022-12-31T07:03:17.382Z,63.20
2022-12-31T07:05:59.218Z,63.70
2022-12-31T07:09:01.108Z,64.20
2022-12-31T07:12:04.093Z,68.60
2022-12-31T07:14:51.404Z,67.70
2022-12-31T07:17:48.184Z,70.60
2022-12-31T07:20:22.768Z,82.90
2022-12-31T07:22:55.951Z,83.20
2022-12-31T07:25:30.842Z,83.80
2022-12-31T07:28:26.925Z,75.00
2022-12-31T07:31:18.074Z,71.50
2022-12-31T07:34:09.141Z,68.30
2022-12-31T07:36:50.093Z,61.40
2022-12-31T07:39:44.680Z,58.10
2022-12-31T07:42:26.061Z,56.30
2022-12-31T07:45:17.397Z,60.50
2022-12-31T07:47:53.562Z,58.00
2022-12-31T07:50:28.922Z,64.90
2022-12-31T07:53:02.318Z,55.60
2022-12-31T07:55:35.811Z,56.10
2022-12-31T07:58:44.663Z,60.30
2022-12-31T08:01:30.183Z,67.10
2022-12-31T08:04:08.952Z,81.70
2022-12-31T08:07:19.267Z,94.40
2022-12-31T08:10:17.668Z,99.50
2022-12-31T08:12:57.656Z,98.30
2022-12-31T08:15:30.916Z,91.80
2022-12-31T08:18:03.929Z,84.60
2022-12-31T08:20:55.047Z,84.80
2022-12-31T08:23:53.738Z,75.70
2022-12-31T08:27:11.863Z,65.10
2022-12-31T08:29:51.757Z,57.50
2022-12-31T08:32:49.328Z,61.40
2022-12-31T08:36:07.102Z,58.60
2022-12-31T08:39:07.961Z,63.10
2022-12-31T08:41:49.125Z,59.60
2022-12-31T08:44:39.754Z,62.90
2022-12-31T08:47:46.359Z,75.20
2022-12-31T08:50:20.831Z,68.00
2022-12-31T08:52:54.136Z,55.90
2022-12-31T08:55:28.498Z,62.30
2022-12-31T08:58:06.675Z,56.90
2022-12-31T09:00:41.176Z,65.10
2022-12-31T09:03:31.348Z,66.30
2022-12-31T09:06:29.842Z,69.70
2022-12-31T09:09:09.696Z,79.30
2022-12-31T09:12:11.549Z,74.00
2022-12-31T09:14:47.673Z,73.30
2022-12-31T09:17:28.722Z,67.20
2022-12-31T09:20:01.968Z,68.00
2022-12-31T09:22:35.307Z,61.60
2022-12-31T09:25:08.754Z,65.90
2022-12-31T09:27:56.001Z,66.30
2022-12-31T09:30:30.364Z,65.50
2022-12-31T09:33:07.882Z,68.70
2022-12-31T09:35:58.540Z,64.80
2022-12-31T09:38:43.685Z,64.10
2022-12-31T09:41:28.505Z,69.20
2022-12-31T09:44:22.373Z,65.90
2022-12-31T09:47:30.266Z,63.70
2022-12-31T09:50:22.961Z,61.70
2022-12-31T09:53:19.498Z,58.90
2022-12-31T09:56:04.441Z,59.70
2022-12-31T09:58:54.229Z,63.80
2022-12-31T10:01:40.471Z,53.80
2022-12-31T10:04:19.046Z,55.20
2022-12-31T10:07:14.383Z,52.50
2022-12-31T10:09:55.812Z,60.30
2022-12-31T10:15:36.167Z,45.80
2022-12-31T10:18:20.485Z,46.40
2022-12-31T10:21:18.988Z,47.80
2022-12-31T10:23:54.189Z,52.10
2022-12-31T10:26:54.578Z,52.80
2022-12-31T10:29:29.802Z,49.20
2022-12-31T10:32:02.501Z,51.70
2022-12-31T10:34:41.527Z,49.90
2022-12-31T10:37:21.664Z,48.90
2022-12-31T10:40:18.916Z,54.60
2022-12-31T10:43:38.848Z,52.50
2022-12-31T10:46:11.300Z,52.00
2022-12-31T10:48:49.673Z,45.40
2022-12-31T10:51:42.479Z,46.50
2022-12-31T10:54:35.239Z,48.40
2022-12-31T10:57:19.591Z,47.70
2022-12-31T11:00:17.015Z,51.10
2022-12-31T11:02:54.628Z,44.20
2022-12-31T11:05:58.119Z,42.00
2022-12-31T11:08:49.485Z,44.70
2022-12-31T11:11:56.098Z,44.70
2022-12-31T11:14:47.079Z,45.40
2022-12-31T11:17:22.455Z,48.60
2022-12-31T11:20:39.974Z,46.20
2022-12-31T11:23:41.844Z,47.20
2022-12-31T11:26:41.937Z,49.40
2022-12-31T11:29:41.500Z,45.40
2022-12-31T11:32:29.281Z,47.20
2022-12-31T11:35:22.720Z,44.90
2022-12-31T11:38:17.715Z,52.30
2022-12-31T11:41:21.376Z,47.10
2022-12-31T11:43:59.732Z,49.60
2022-12-31T11:47:04.805Z,48.10
2022-12-31T11:50:01.269Z,47.20
2022-12-31T11:52:51.827Z,51.20
2022-12-31T11:55:53.455Z,43.40
2022-12-31T11:58:29.197Z,46.30
2022-12-31T12:01:16.266Z,46.70
2022-12-31T12:03:50.188Z,43.60
2022-12-31T12:06:29.361Z,43.80
2022-12-31T12:09:20.873Z,48.40
2022-12-31T12:12:02.553Z,47.60
2022-12-31T12:14:39.274Z,46.10
2022-12-31T12:17:18.731Z,46.50
2022-12-31T12:19:57.293Z,45.40
2022-12-31T12:22:31.950Z,46.80
2022-12-31T12:25:18.537Z,45.50
2022-12-31T12:27:51.966Z,45.50
2022-12-31T12:30:27.751Z,43.20
2022-12-31T12:33:05.270Z,45.00
2022-12-31T12:35:39.900Z,43.60
2022-12-31T12:38:42.495Z,43.20
2022-12-31T12:41:28.666Z,47.00
2022-12-31T12:44:17.324Z,46.30
2022-12-31T12:46:51.829Z,44.40
2022-12-31T12:49:29.697Z,44.20
2022-12-31T12:52:24.334Z,43.40
2022-12-31T12:55:36.042Z,43.90
2022-12-31T12:58:28.881Z,47.50
2022-12-31T13:01:21.487Z,43.60
2022-12-31T13:04:34.978Z,41.50
2022-12-31T13:07:37.138Z,43.60
2022-12-31T13:10:21.651Z,48.20
2022-12-31T13:13:26.084Z,44.00
2022-12-31T13:16:19.202Z,46.40
2022-12-31T13:19:00.784Z,41.60
2022-12-31T13:21:56.062Z,40.30
2022-12-31T13:24:34.240Z,46.00
2022-12-31T13:27:29.878Z,42.50
2022-12-31T13:30:08.533Z,44.30
2022-12-31T13:32:48.152Z,47.10
2022-12-31T13:35:36.617Z,45.10
2022-12-31T13:38:24.816Z,42.40
2022-12-31T13:41:11.314Z,47.30
2022-12-31T13:44:15.797Z,48.30
2022-12-31T13:47:04.610Z,48.50
2022-12-31T13:49:47.082Z,49.40
2022-12-31T13:52:29.730Z,51.50
2022-12-31T13:55:21.623Z,54.50
2022-12-31T13:57:59.228Z,53.60
2022-12-31T14:00:49.677Z,57.60
2022-12-31T14:03:41.231Z,60.20
2022-12-31T14:06:27.671Z,58.70
2022-12-31T14:09:01.171Z,55.30
2022-12-31T14:11:56.851Z,54.40
2022-12-31T14:14:43.857Z,45.20
2022-12-31T14:17:39.598Z,43.30
2022-12-31T14:20:47.995Z,49.60
2022-12-31T14:23:49.675Z,51.60
2022-12-31T14:26:27.928Z,47.70
2022-12-31T14:29:16.302Z,45.60
2022-12-31T14:31:52.283Z,43.30
2022-12-31T14:34:52.503Z,41.70
2022-12-31T14:37:43.274Z,43.20
2022-12-31T14:40:56.977Z,45.10
2022-12-31T14:44:06.295Z,48.40
2022-12-31T14:47:06.000Z,54.50
2022-12-31T14:49:58.983Z,51.50
2022-12-31T14:52:36.410Z,48.90
2022-12-31T14:55:24.527Z,49.20
2022-12-31T14:58:26.966Z,42.10
2022-12-31T15:01:20.274Z,46.50
2022-12-31T15:03:53.096Z,51.10
2022-12-31T15:06:52.589Z,50.50
2022-12-31T15:09:46.578Z,50.30
2022-12-31T15:12:40.018Z,54.80
2022-12-31T15:15:26.754Z,47.60
2022-12-31T15:18:16.857Z,53.10
2022-12-31T15:21:09.154Z,56.00
2022-12-31T15:23:44.338Z,51.20
2022-12-31T15:26:32.030Z,50.00
2022-12-31T15:29:08.478Z,49.50
2022-12-31T15:31:49.262Z,54.80
2022-12-31T15:34:36.354Z,49.30
2022-12-31T15:37:31.403Z,45.70
2022-12-31T15:40:30.169Z,51.10
2022-12-31T15:43:14.199Z,55.30
2022-12-31T15:45:48.807Z,46.10
2022-12-31T15:48:43.705Z,49.00
2022-12-31T15:51:26.344Z,46.40
2022-12-31T15:54:01.495Z,50.90
2022-12-31T15:56:38.952Z,51.40
2022-12-31T15:59:18.283Z,48.00
2022-12-31T16:01:52.015Z,51.40
2022-12-31T16:04:28.285Z,48.10
2022-12-31T16:07:05.768Z,53.80
2022-12-31T16:09:39.240Z,47.50
2022-12-31T16:12:25.400Z,51.90
2022-12-31T16:15:04.351Z,56.90
2022-12-31T16:17:40.393Z,48.90
2022-12-31T16:20:30.844Z,47.00
2022-12-31T16:23:19.908Z,43.50
2022-12-31T16:25:55.267Z,45.70
2022-12-31T16:28:35.260Z,48.20
2022-12-31T16:31:10.462Z,46.40
2022-12-31T16:33:43.717Z,47.40
2022-12-31T16:36:24.306Z,50.60
2022-12-31T16:39:15.832Z,49.60
2022-12-31T16:41:48.702Z,48.60
2022-12-31T16:44:32.306Z,48.20
2022-12-31T16:47:07.986Z,46.00
2022-12-31T16:49:44.104Z,50.70
2022-12-31T16:52:51.642Z,52.50
2022-12-31T16:55:30.739Z,52.80
2022-12-31T16:58:21.686Z,41.00
2022-12-31T17:00:55.267Z,50.50
2022-12-31T17:03:30.643Z,45.70
2022-12-31T17:06:23.105Z,60.00
2022-12-31T17:09:14.478Z,58.10
2022-12-31T17:11:50.877Z,53.20
2022-12-31T17:14:29.252Z,52.80
2022-12-31T17:17:07.996Z,51.80
2022-12-31T17:19:46.010Z,49.60
2022-12-31T17:22:34.579Z,56.70
2022-12-31T17:25:34.897Z,50.60
2022-12-31T17:28:23.251Z,50.90
2022-12-31T17:31:00.609Z,58.90
2022-12-31T17:33:34.815Z,55.30
2022-12-31T17:36:27.424Z,56.00
2022-12-31T17:39:21.258Z,64.30
2022-12-31T17:41:57.923Z,60.70
2022-12-31T17:44:31.459Z,64.80
2022-12-31T17:47:06.540Z,70.40
2022-12-31T17:49:39.704Z,70.50
2022-12-31T17:52:16.915Z,71.90
2022-12-31T17:54:50.251Z,68.20
2022-12-31T17:57:29.251Z,66.30
2022-12-31T18:00:02.331Z,63.50
2022-12-31T18:02:46.682Z,56.50
2022-12-31T18:05:22.719Z,53.50
2022-12-31T18:07:56.462Z,54.30
2022-12-31T18:10:31.955Z,55.80
2022-12-31T18:13:10.553Z,53.40
2022-12-31T18:15:43.493Z,56.40
2022-12-31T18:18:33.199Z,56.20
2022-12-31T18:21:36.657Z,58.00
2022-12-31T18:24:15.598Z,53.10
2022-12-31T18:26:48.851Z,66.80
2022-12-31T18:29:22.104Z,80.10
2022-12-31T18:31:56.512Z,90.60
2022-12-31T18:34:29.535Z,76.60
2022-12-31T18:37:02.898Z,62.10
2022-12-31T18:39:35.601Z,56.10
2022-12-31T18:42:08.251Z,53.90
2022-12-31T18:44:41.227Z,52.50
2022-12-31T18:47:19.178Z,52.10
2022-12-31T18:49:53.129Z,56.80
2022-12-31T18:52:26.007Z,62.90
2022-12-31T18:54:58.858Z,63.70
2022-12-31T18:57:31.903Z,66.00
2022-12-31T19:00:04.795Z,65.60
2022-12-31T19:02:37.625Z,60.30
2022-12-31T19:05:27.898Z,62.20
2022-12-31T19:08:01.328Z,60.70
2022-12-31T19:10:35.578Z,57.30
2022-12-31T19:13:08.475Z,45.50
2022-12-31T19:15:49.742Z,49.30
2022-12-31T19:18:22.722Z,53.10
2022-12-31T19:20:56.045Z,50.50
2022-12-31T19:23:29.114Z,54.00
2022-12-31T19:26:02.072Z,59.30
2022-12-31T19:28:35.166Z,58.40
2022-12-31T19:31:08.345Z,60.60
2022-12-31T19:33:41.678Z,55.30
2022-12-31T19:36:26.388Z,60.70
2022-12-31T19:38:59.215Z,56.90
2022-12-31T19:41:32.312Z,56.60
2022-12-31T19:44:05.563Z,38.90
2022-12-31T19:46:38.471Z,37.10
2022-12-31T19:49:14.040Z,52.60
2022-12-31T19:51:47.099Z,57.80
2022-12-31T19:54:20.153Z,50.80
2022-12-31T19:56:53.350Z,54.60
2022-12-31T19:59:26.950Z,55.30
2022-12-31T20:02:01.116Z,54.60
2022-12-31T20:04:34.074Z,60.40
2022-12-31T20:07:07.019Z,55.30
2022-12-31T20:09:39.925Z,57.50
2022-12-31T20:12:13.051Z,43.90
2022-12-31T20:14:46.160Z,44.50
2022-12-31T20:17:19.502Z,51.50
2022-12-31T20:19:52.786Z,51.40
2022-12-31T20:22:25.505Z,47.80
2022-12-31T20:24:58.635Z,50.70
2022-12-31T20:27:31.609Z,62.20
2022-12-31T20:30:04.458Z,63.20
2022-12-31T20:32:37.645Z,60.80
2022-12-31T20:35:10.793Z,62.40
2022-12-31T20:37:44.002Z,51.70
2022-12-31T20:40:17.444Z,58.60
2022-12-31T20:42:50.455Z,64.30
2022-12-31T20:45:23.464Z,59.90
2022-12-31T20:47:56.915Z,57.90
2022-12-31T20:50:30.251Z,58.80
2022-12-31T20:53:03.175Z,55.60
2022-12-31T20:55:38.612Z,61.10
2022-12-31T20:58:11.146Z,52.80
2022-12-31T21:00:43.833Z,56.90
2022-12-31T21:03:53.531Z,59.60
2022-12-31T21:06:13.651Z,61.20
2022-12-31T21:08:46.806Z,66.00
2022-12-31T21:11:37.951Z,65.60
2022-12-31T21:14:10.664Z,63.20
2022-12-31T21:16:43.276Z,64.90
2022-12-31T21:19:15.826Z,64.10
2022-12-31T21:21:48.700Z,69.90
2022-12-31T21:24:24.095Z,66.80
2022-12-31T21:27:00.294Z,60.30
2022-12-31T21:29:34.891Z,57.80
2022-12-31T21:32:08.625Z,56.10
2022-12-31T21:34:41.419Z,56.00
2022-12-31T21:37:14.221Z,56.70
2022-12-31T21:39:46.836Z,53.80
2022-12-31T21:42:19.672Z,58.50
2022-12-31T21:44:52.952Z,56.40
2022-12-31T21:47:47.606Z,64.00
2022-12-31T21:50:21.170Z,63.40
2022-12-31T21:52:53.687Z,67.00
2022-12-31T21:55:44.985Z,70.80
2022-12-31T21:58:27.535Z,69.30
2022-12-31T22:01:21.462Z,75.40
2022-12-31T22:03:54.328Z,76.50
2022-12-31T22:06:27.678Z,80.20
2022-12-31T22:09:00.548Z,65.20
2022-12-31T22:11:33.954Z,63.80
2022-12-31T22:14:07.043Z,67.90
2022-12-31T22:16:40.253Z,74.80
2022-12-31T22:19:13.379Z,61.60
2022-12-31T22:21:46.546Z,61.60
2022-12-31T22:24:19.492Z,57.30
2022-12-31T22:26:54.506Z,54.40
2022-12-31T22:29:27.477Z,63.30
2022-12-31T22:32:01.434Z,60.50
2022-12-31T22:34:34.483Z,66.50
2022-12-31T22:37:27.569Z,65.40
2022-12-31T22:40:01.992Z,75.70
2022-12-31T22:42:35.100Z,72.50
2022-12-31T22:45:08.993Z,73.70
2022-12-31T22:47:42.245Z,79.00
2022-12-31T22:50:15.140Z,71.40
2022-12-31T22:52:48.098Z,73.90
2022-12-31T22:55:21.271Z,78.30
2022-12-31T22:57:54.706Z,64.50
2022-12-31T23:00:41.434Z,65.20
2022-12-31T23:03:14.785Z,61.70
2022-12-31T23:05:51.909Z,65.70
2022-12-31T23:08:25.325Z,60.10
2022-12-31T23:11:00.905Z,59.80
2022-12-31T23:13:57.954Z,59.00
2022-12-31T23:16:50.846Z,58.90
2022-12-31T23:19:42.263Z,59.10
2022-12-31T23:22:33.039Z,56.70
2022-12-31T23:25:05.826Z,64.40
2022-12-31T23:27:38.804Z,68.40
2022-12-31T23:30:12.196Z,66.40
2022-12-31T23:32:44.812Z,72.20
2022-12-31T23:35:18.224Z,73.00
2022-12-31T23:37:50.908Z,69.40
2022-12-31T23:40:24.215Z,60.60
2022-12-31T23:42:57.067Z,62.40
2022-12-31T23:45:33.251Z,60.40
2022-12-31T23:48:06.689Z,56.50
2022-12-31T23:50:41.771Z,60.60
2022-12-31T23:53:14.345Z,63.50
2022-12-31T23:55:47.070Z,64.80
2022-12-31T23:58:20.075Z,61.40
